1956 Tropical Cyclone NOT_NAMED (1956016S18153)


IBTrACS version v04r00. Visit IBTrACS website for data access.
Please direct all questions to the IBTrACS Q and A forum

Storm track - Intensity - Wind Radii - Intensity Data - Source Data - All data

Summary Information

Storm ID 1956016S18153
Start Jan 15 23Z
Max Intensity 40 kt (Jan 17 23Z)
End Jan 17 23Z
ATCF IDs ,SH101956
Track status Best track data.

Storm track plot

Map of storm track

Intensity plots

Map of storm track

Radial wind information

No radial wind information for this storm


Position and Intensity Table

BASIN ISO_TIME_________ NATURE LAT LON USA WIND DS824 WIND TD9636 WIND
degrees north degrees east kts kts kts
SP 1956-01-15 23:00:00 NR -18.00 153.00 10
SP 1956-01-16 00:00:00 TS -18.01 153.01 10 10
SP 03:00:00 TS -18.06 153.06 12 12
SP 06:00:00 TS -18.11 153.11 15 15
SP 09:00:00 TS -18.16 153.16 17 17
SP 11:00:00 TS -18.19 153.19 19 19
SP 12:00:00 TS -18.20 153.20 20 20
SP 15:00:00 TS -18.25 153.25 20 20
SP 18:00:00 TS -18.30 153.30 20 20
SP 21:00:00 TS -18.38 153.38 22 22
SP 23:00:00 TS -18.46 153.46 24 24
SP 1956-01-17 00:00:00 TS -18.52 153.52 25 25
SP 03:00:00 TS -18.79 153.79 27 27
SP 06:00:00 TS -19.09 154.09 30 30
SP 09:00:00 TS -19.37 154.37 32 32
SP 11:00:00 TS -19.52 154.52 34 34
SP 12:00:00 TS -19.59 154.59 35 35
SP 15:00:00 TS -19.73 154.73 35 35
SP 18:00:00 TS -19.83 154.83 35 35
SP 21:00:00 NR -19.95 154.95
SP 23:00:00 NR -20.00 155.00 40

Source Information

Agency Information
USA bsh101956.txt
TOKYO
CMA
HKO
NEWDELHI
REUNION
BOM
NADI
WELLINGTON
DS824 s_hem.dat:661:10P
TD9636 cons_worldwide_trop_cyclone_18710101-19891231-006:Line=4421
TD9635
NEUMANN
MLC

All available IBTrACS Data

SEASON BASIN SUBBASIN ISO_TIME_________ NATURE LAT LON DIST2LAND LANDFALL IFLAG USA AGENCY USA ATCF_ID USA LAT USA LON USA WIND USA SSHS DS824 LAT DS824 LON DS824 STAGE DS824 WIND TD9636 LAT TD9636 LON TD9636 STAGE TD9636 WIND STORM SPEED STORM DIR
Year degrees north degrees east km km degrees north degrees east kts 1 degrees north degrees east kts degrees north degrees east kts kts degrees
1956 SP EA 1956-01-15 23:00:00 NR -18.00 153.00 510 510 __________O___ -1 -18.00 153.00 1 10 1 0
1956 SP EA 1956-01-16 00:00:00 TS -18.01 153.01 510 510 O________OP___ jtwc_sh SH101956 -18.00 153.00 10 -1 -18.00 153.00 TC 10 -18.02 153.02 1 1 139
1956 SP EA 03:00:00 TS -18.06 153.06 514 514 P________PP___ SH101956 -18.05 153.05 12 -1 -18.05 153.05 TC 12 -18.07 153.07 1 1 137
1956 SP EA 06:00:00 TS -18.11 153.11 514 514 O________OP___ jtwc_sh SH101956 -18.10 153.10 15 -1 -18.10 153.10 TC 15 -18.12 153.12 1 1 135
1956 SP EA 09:00:00 TS -18.16 153.16 518 518 P________PP___ SH101956 -18.15 153.15 17 -1 -18.15 153.15 TC 17 -18.17 153.17 1 1 135
1956 SP EA 11:00:00 TS -18.19 153.19 518 518 P________PO___ SH101956 -18.18 153.18 19 -1 -18.18 153.18 TC 19 -18.20 153.20 1 1 147
1956 SP EA 12:00:00 TS -18.20 153.20 518 518 O________OP___ jtwc_sh SH101956 -18.20 153.20 20 -1 -18.20 153.20 TC 20 -18.21 153.21 1 1 137
1956 SP EA 15:00:00 TS -18.25 153.25 518 518 P________PP___ SH101956 -18.24 153.24 20 -1 -18.24 153.24 TC 20 -18.25 153.25 1 1 137
1956 SP EA 18:00:00 TS -18.30 153.30 522 522 O________OP___ jtwc_sh SH101956 -18.30 153.30 20 -1 -18.30 153.30 TC 20 -18.31 153.31 1 2 136
1956 SP EA 21:00:00 TS -18.38 153.38 527 524 P________PP___ SH101956 -18.36 153.36 22 -1 -18.36 153.36 TC 22 -18.41 153.41 1 3 136
1956 SP EA 23:00:00 TS -18.46 153.46 524 524 P________PO___ SH101956 -18.44 153.44 24 -1 -18.44 153.44 TC 24 -18.50 153.50 1 4 137
1956 SP EA 1956-01-17 00:00:00 TS -18.52 153.52 524 515 O________OP___ jtwc_sh SH101956 -18.50 153.50 25 -1 -18.50 153.50 TC 25 -18.57 153.57 1 7 137
1956 SP EA 03:00:00 TS -18.79 153.79 515 510 P________PP___ SH101956 -18.78 153.78 27 -1 -18.78 153.78 TC 27 -18.81 153.80 1 8 137
1956 SP EA 06:00:00 TS -19.09 154.09 510 509 O________OP___ jtwc_sh SH101956 -19.10 154.10 30 -1 -19.10 154.10 TC 30 -19.08 154.08 1 8 137
1956 SP EA 09:00:00 TS -19.37 154.37 509 509 P________PP___ SH101956 -19.38 154.38 32 -1 -19.38 154.38 TC 32 -19.34 154.34 1 7 137
1956 SP EA 11:00:00 TS -19.52 154.52 509 509 P________PO___ SH101956 -19.54 154.54 34 0 -19.54 154.54 TC 34 -19.50 154.50 2 6 137
1956 SP EA 12:00:00 TS -19.59 154.59 510 510 O________OP___ jtwc_sh SH101956 -19.60 154.60 35 0 -19.60 154.60 TC 35 -19.57 154.57 2 4 137
1956 SP EA 15:00:00 TS -19.73 154.73 511 511 P________PP___ SH101956 -19.73 154.73 35 0 -19.73 154.73 TC 35 -19.73 154.73 2 3 137
1956 SP EA 18:00:00 TS -19.83 154.83 512 512 O________OP___ jtwc_sh SH101956 -19.80 154.80 35 0 -19.80 154.80 TC 35 -19.85 154.85 2 3 137
1956 SP EA 21:00:00 NR -19.95 154.95 514 514 __________P___ SH101956 -1 TC -19.95 154.95 2 3 137
1956 SP EA 23:00:00 NR -20.00 155.00 517 __________O___ SH101956 -1 TC -20.00 155.00 2 40 2 133